sensor_id;sensor_type;location;lat;lon;timestamp;temperature;humidity
56234;DHT22;42141;53.240;6.580;2023-07-13T00:00:33;16.90;99.90
56234;DHT22;42141;53.240;6.580;2023-07-13T00:02:59;15.80;99.90
56234;DHT22;42141;53.240;6.580;2023-07-13T00:05:25;16.80;99.90
56234;DHT22;42141;53.240;6.580;2023-07-13T00:07:54;16.80;99.90
56234;DHT22;42141;53.240;6.580;2023-07-13T00:10:20;15.80;99.90
56234;DHT22;42141;53.240;6.580;2023-07-13T00:12:49;16.80;99.90
56234;DHT22;42141;53.240;6.580;2023-07-13T00:15:20;16.80;99.90
56234;DHT22;42141;53.240;6.580;2023-07-13T00:17:49;16.80;99.90
56234;DHT22;42141;53.240;6.580;2023-07-13T00:20:15;16.80;99.90
56234;DHT22;42141;53.240;6.580;2023-07-13T00:22:41;16.80;99.90
56234;DHT22;42141;53.240;6.580;2023-07-13T00:25:12;16.80;99.90
56234;DHT22;42141;53.240;6.580;2023-07-13T00:27:37;16.80;99.90
56234;DHT22;42141;53.240;6.580;2023-07-13T00:30:04;16.80;99.90
56234;DHT22;42141;53.240;6.580;2023-07-13T00:32:31;16.70;99.90
56234;DHT22;42141;53.240;6.580;2023-07-13T00:34:57;16.70;99.90
56234;DHT22;42141;53.240;6.580;2023-07-13T00:37:24;16.70;99.90
56234;DHT22;42141;53.240;6.580;2023-07-13T00:39:49;14.80;99.90
56234;DHT22;42141;53.240;6.580;2023-07-13T00:42:24;16.70;99.90
56234;DHT22;42141;53.240;6.580;2023-07-13T00:47:41;16.70;99.90
56234;DHT22;42141;53.240;6.580;2023-07-13T00:50:09;16.70;99.90
56234;DHT22;42141;53.240;6.580;2023-07-13T00:52:38;16.70;99.90
56234;DHT22;42141;53.240;6.580;2023-07-13T00:55:06;16.60;99.90
56234;DHT22;42141;53.240;6.580;2023-07-13T00:57:33;16.60;99.90
56234;DHT22;42141;53.240;6.580;2023-07-13T01:00:01;16.60;99.90
56234;DHT22;42141;53.240;6.580;2023-07-13T01:02:34;16.50;99.90
56234;DHT22;42141;53.240;6.580;2023-07-13T01:05:00;16.50;99.90
56234;DHT22;42141;53.240;6.580;2023-07-13T01:07:27;16.50;99.90
56234;DHT22;42141;53.240;6.580;2023-07-13T01:09:53;16.50;99.90
56234;DHT22;42141;53.240;6.580;2023-07-13T01:12:19;16.50;99.90
56234;DHT22;42141;53.240;6.580;2023-07-13T01:14:44;16.50;99.90
56234;DHT22;42141;53.240;6.580;2023-07-13T01:17:11;16.50;99.90
56234;DHT22;42141;53.240;6.580;2023-07-13T01:19:42;16.40;99.90
56234;DHT22;42141;53.240;6.580;2023-07-13T01:22:11;14.40;99.90
56234;DHT22;42141;53.240;6.580;2023-07-13T01:24:40;16.40;99.90
56234;DHT22;42141;53.240;6.580;2023-07-13T01:27:08;16.40;99.90
56234;DHT22;42141;53.240;6.580;2023-07-13T01:29:35;16.40;99.90
56234;DHT22;42141;53.240;6.580;2023-07-13T01:32:14;16.40;99.90
56234;DHT22;42141;53.240;6.580;2023-07-13T01:34:40;16.40;99.90
56234;DHT22;42141;53.240;6.580;2023-07-13T01:37:10;16.30;99.90
56234;DHT22;42141;53.240;6.580;2023-07-13T01:39:37;16.10;99.90
56234;DHT22;42141;53.240;6.580;2023-07-13T01:42:03;16.40;99.90
56234;DHT22;42141;53.240;6.580;2023-07-13T01:44:29;16.30;99.90
56234;DHT22;42141;53.240;6.580;2023-07-13T01:46:56;16.30;99.90
56234;DHT22;42141;53.240;6.580;2023-07-13T01:49:22;16.30;99.90
56234;DHT22;42141;53.240;6.580;2023-07-13T01:51:48;16.40;99.90
56234;DHT22;42141;53.240;6.580;2023-07-13T01:54:13;16.30;99.90
56234;DHT22;42141;53.240;6.580;2023-07-13T01:56:39;16.30;99.90
56234;DHT22;42141;53.240;6.580;2023-07-13T01:59:08;16.40;99.90
56234;DHT22;42141;53.240;6.580;2023-07-13T02:01:34;16.40;99.90
56234;DHT22;42141;53.240;6.580;2023-07-13T02:03:59;16.40;99.90
56234;DHT22;42141;53.240;6.580;2023-07-13T02:06:25;16.40;99.90
56234;DHT22;42141;53.240;6.580;2023-07-13T02:08:51;16.40;99.90
56234;DHT22;42141;53.240;6.580;2023-07-13T02:11:17;16.40;99.90
56234;DHT22;42141;53.240;6.580;2023-07-13T02:13:43;16.40;99.90
56234;DHT22;42141;53.240;6.580;2023-07-13T02:16:09;16.30;99.90
56234;DHT22;42141;53.240;6.580;2023-07-13T02:18:35;16.40;99.90
56234;DHT22;42141;53.240;6.580;2023-07-13T02:21:00;16.30;99.90
56234;DHT22;42141;53.240;6.580;2023-07-13T02:23:26;16.40;99.90
56234;DHT22;42141;53.240;6.580;2023-07-13T02:25:59;16.20;99.90
56234;DHT22;42141;53.240;6.580;2023-07-13T02:28:25;16.30;99.90
56234;DHT22;42141;53.240;6.580;2023-07-13T02:30:51;16.20;99.90
56234;DHT22;42141;53.240;6.580;2023-07-13T02:33:17;16.20;99.90
56234;DHT22;42141;53.240;6.580;2023-07-13T02:35:43;16.20;99.90
56234;DHT22;42141;53.240;6.580;2023-07-13T02:38:09;16.20;99.90
56234;DHT22;42141;53.240;6.580;2023-07-13T02:40:35;16.20;99.90
56234;DHT22;42141;53.240;6.580;2023-07-13T02:43:01;16.20;99.90
56234;DHT22;42141;53.240;6.580;2023-07-13T02:45:27;16.10;99.90
56234;DHT22;42141;53.240;6.580;2023-07-13T02:47:53;16.10;99.90
56234;DHT22;42141;53.240;6.580;2023-07-13T02:50:19;16.10;99.90
56234;DHT22;42141;53.240;6.580;2023-07-13T02:52:44;16.10;99.90
56234;DHT22;42141;53.240;6.580;2023-07-13T02:55:11;16.00;99.90
56234;DHT22;42141;53.240;6.580;2023-07-13T02:57:37;16.00;99.90
56234;DHT22;42141;53.240;6.580;2023-07-13T03:00:04;15.50;99.90
56234;DHT22;42141;53.240;6.580;2023-07-13T03:02:34;16.00;99.90
56234;DHT22;42141;53.240;6.580;2023-07-13T03:05:00;16.00;99.90
56234;DHT22;42141;53.240;6.580;2023-07-13T03:07:26;16.00;99.90
56234;DHT22;42141;53.240;6.580;2023-07-13T03:09:56;16.00;99.90
56234;DHT22;42141;53.240;6.580;2023-07-13T03:12:22;16.00;99.90
56234;DHT22;42141;53.240;6.580;2023-07-13T03:14:48;15.90;99.90
56234;DHT22;42141;53.240;6.580;2023-07-13T03:17:14;16.00;99.90
56234;DHT22;42141;53.240;6.580;2023-07-13T03:19:39;16.00;99.90
56234;DHT22;42141;53.240;6.580;2023-07-13T03:22:05;15.90;99.90
56234;DHT22;42141;53.240;6.580;2023-07-13T03:24:33;15.90;99.90
56234;DHT22;42141;53.240;6.580;2023-07-13T03:27:04;15.90;99.90
56234;DHT22;42141;53.240;6.580;2023-07-13T03:29:30;15.90;99.90
56234;DHT22;42141;53.240;6.580;2023-07-13T03:31:55;15.90;99.90
56234;DHT22;42141;53.240;6.580;2023-07-13T03:34:21;15.90;99.90
56234;DHT22;42141;53.240;6.580;2023-07-13T03:36:47;18.20;99.90
56234;DHT22;42141;53.240;6.580;2023-07-13T03:39:13;16.00;99.90
56234;DHT22;42141;53.240;6.580;2023-07-13T03:41:39;15.90;99.90
56234;DHT22;42141;53.240;6.580;2023-07-13T03:44:05;17.60;99.90
56234;DHT22;42141;53.240;6.580;2023-07-13T03:46:31;16.00;99.90
56234;DHT22;42141;53.240;6.580;2023-07-13T03:48:57;15.90;99.90
56234;DHT22;42141;53.240;6.580;2023-07-13T03:51:22;16.00;99.90
56234;DHT22;42141;53.240;6.580;2023-07-13T03:53:49;16.00;99.90
56234;DHT22;42141;53.240;6.580;2023-07-13T03:56:17;16.00;99.90
56234;DHT22;42141;53.240;6.580;2023-07-13T03:58:46;16.00;99.90
56234;DHT22;42141;53.240;6.580;2023-07-13T04:01:13;16.00;99.90
56234;DHT22;42141;53.240;6.580;2023-07-13T04:03:39;16.00;99.90
56234;DHT22;42141;53.240;6.580;2023-07-13T04:06:08;16.00;99.90
56234;DHT22;42141;53.240;6.580;2023-07-13T04:08:37;16.00;99.90
56234;DHT22;42141;53.240;6.580;2023-07-13T04:11:04;16.00;99.90
56234;DHT22;42141;53.240;6.580;2023-07-13T04:13:30;16.00;99.90
56234;DHT22;42141;53.240;6.580;2023-07-13T04:15:55;16.00;99.90
56234;DHT22;42141;53.240;6.580;2023-07-13T04:18:22;16.00;99.90
56234;DHT22;42141;53.240;6.580;2023-07-13T04:20:48;16.00;99.90
56234;DHT22;42141;53.240;6.580;2023-07-13T04:23:15;16.00;99.90
56234;DHT22;42141;53.240;6.580;2023-07-13T04:25:48;16.00;99.90
56234;DHT22;42141;53.240;6.580;2023-07-13T04:28:15;16.00;99.90
56234;DHT22;42141;53.240;6.580;2023-07-13T04:30:43;16.00;99.90
56234;DHT22;42141;53.240;6.580;2023-07-13T04:33:09;16.00;99.90
56234;DHT22;42141;53.240;6.580;2023-07-13T04:35:35;16.00;99.90
56234;DHT22;42141;53.240;6.580;2023-07-13T04:38:00;16.10;99.90
56234;DHT22;42141;53.240;6.580;2023-07-13T04:40:27;16.10;99.90
56234;DHT22;42141;53.240;6.580;2023-07-13T04:42:53;16.30;99.90
56234;DHT22;42141;53.240;6.580;2023-07-13T04:45:19;16.10;99.90
56234;DHT22;42141;53.240;6.580;2023-07-13T04:47:45;16.10;99.90
56234;DHT22;42141;53.240;6.580;2023-07-13T04:50:13;16.20;99.90
56234;DHT22;42141;53.240;6.580;2023-07-13T04:52:44;16.20;99.90
56234;DHT22;42141;53.240;6.580;2023-07-13T04:55:10;16.20;99.90
56234;DHT22;42141;53.240;6.580;2023-07-13T04:57:36;16.30;99.90
56234;DHT22;42141;53.240;6.580;2023-07-13T05:00:02;16.30;99.90
56234;DHT22;42141;53.240;6.580;2023-07-13T05:02:31;16.30;99.90
56234;DHT22;42141;53.240;6.580;2023-07-13T05:04:58;16.40;99.90
56234;DHT22;42141;53.240;6.580;2023-07-13T05:07:25;16.50;99.90
56234;DHT22;42141;53.240;6.580;2023-07-13T05:09:51;16.50;99.90
56234;DHT22;42141;53.240;6.580;2023-07-13T05:12:16;16.60;99.90
56234;DHT22;42141;53.240;6.580;2023-07-13T05:14:42;16.60;99.90
56234;DHT22;42141;53.240;6.580;2023-07-13T05:17:08;16.70;99.90
56234;DHT22;42141;53.240;6.580;2023-07-13T05:19:35;16.70;99.90
56234;DHT22;42141;53.240;6.580;2023-07-13T05:22:00;16.70;99.90
56234;DHT22;42141;53.240;6.580;2023-07-13T05:24:28;16.80;99.90
56234;DHT22;42141;53.240;6.580;2023-07-13T05:26:53;16.80;99.90
56234;DHT22;42141;53.240;6.580;2023-07-13T05:29:20;16.90;99.90
56234;DHT22;42141;53.240;6.580;2023-07-13T05:31:49;17.00;99.90
56234;DHT22;42141;53.240;6.580;2023-07-13T05:34:15;17.00;99.90
56234;DHT22;42141;53.240;6.580;2023-07-13T05:36:41;17.10;99.90
56234;DHT22;42141;53.240;6.580;2023-07-13T05:39:07;17.10;99.90
56234;DHT22;42141;53.240;6.580;2023-07-13T05:41:32;17.20;99.90
56234;DHT22;42141;53.240;6.580;2023-07-13T05:43:58;17.30;99.90
56234;DHT22;42141;53.240;6.580;2023-07-13T05:46:24;17.40;99.90
56234;DHT22;42141;53.240;6.580;2023-07-13T05:48:53;17.40;99.90
56234;DHT22;42141;53.240;6.580;2023-07-13T05:51:18;17.50;99.90
56234;DHT22;42141;53.240;6.580;2023-07-13T05:53:44;17.50;99.90
56234;DHT22;42141;53.240;6.580;2023-07-13T05:56:10;17.60;99.90
56234;DHT22;42141;53.240;6.580;2023-07-13T05:58:36;17.60;99.90
56234;DHT22;42141;53.240;6.580;2023-07-13T06:01:08;17.70;99.90
56234;DHT22;42141;53.240;6.580;2023-07-13T06:03:34;17.80;99.90
56234;DHT22;42141;53.240;6.580;2023-07-13T06:06:00;17.80;99.90
56234;DHT22;42141;53.240;6.580;2023-07-13T06:08:26;18.00;99.90
56234;DHT22;42141;53.240;6.580;2023-07-13T06:10:52;18.10;99.90
56234;DHT22;42141;53.240;6.580;2023-07-13T06:13:18;18.20;99.90
56234;DHT22;42141;53.240;6.580;2023-07-13T06:15:53;18.30;99.90
56234;DHT22;42141;53.240;6.580;2023-07-13T06:18:19;18.40;99.90
56234;DHT22;42141;53.240;6.580;2023-07-13T06:20:44;18.40;99.90
56234;DHT22;42141;53.240;6.580;2023-07-13T06:23:10;18.50;99.90
56234;DHT22;42141;53.240;6.580;2023-07-13T06:25:36;18.50;99.90
56234;DHT22;42141;53.240;6.580;2023-07-13T06:28:01;18.60;99.90
56234;DHT22;42141;53.240;6.580;2023-07-13T06:30:27;18.60;99.90
56234;DHT22;42141;53.240;6.580;2023-07-13T06:32:53;18.70;99.90
56234;DHT22;42141;53.240;6.580;2023-07-13T06:35:19;18.70;99.90
56234;DHT22;42141;53.240;6.580;2023-07-13T06:37:45;18.80;99.90
56234;DHT22;42141;53.240;6.580;2023-07-13T06:40:11;18.90;99.90
56234;DHT22;42141;53.240;6.580;2023-07-13T06:42:37;19.00;99.90
56234;DHT22;42141;53.240;6.580;2023-07-13T06:45:04;19.00;99.90
56234;DHT22;42141;53.240;6.580;2023-07-13T06:47:30;19.10;99.90
56234;DHT22;42141;53.240;6.580;2023-07-13T06:49:56;19.30;99.90
56234;DHT22;42141;53.240;6.580;2023-07-13T06:52:23;19.50;99.90
56234;DHT22;42141;53.240;6.580;2023-07-13T06:54:48;19.60;99.90
56234;DHT22;42141;53.240;6.580;2023-07-13T06:57:14;19.70;99.90
56234;DHT22;42141;53.240;6.580;2023-07-13T06:59:40;19.80;99.90
56234;DHT22;42141;53.240;6.580;2023-07-13T07:02:07;19.90;99.90
56234;DHT22;42141;53.240;6.580;2023-07-13T07:04:34;19.90;99.90
56234;DHT22;42141;53.240;6.580;2023-07-13T07:07:00;19.90;99.90
56234;DHT22;42141;53.240;6.580;2023-07-13T07:09:25;19.90;99.90
56234;DHT22;42141;53.240;6.580;2023-07-13T07:11:52;20.00;99.90
56234;DHT22;42141;53.240;6.580;2023-07-13T07:14:19;20.10;99.90
56234;DHT22;42141;53.240;6.580;2023-07-13T07:16:45;20.30;99.90
56234;DHT22;42141;53.240;6.580;2023-07-13T07:19:10;20.50;99.90
56234;DHT22;42141;53.240;6.580;2023-07-13T07:21:37;20.60;99.90
56234;DHT22;42141;53.240;6.580;2023-07-13T07:24:04;20.60;99.90
56234;DHT22;42141;53.240;6.580;2023-07-13T07:26:30;20.60;99.90
56234;DHT22;42141;53.240;6.580;2023-07-13T07:28:56;20.50;99.90
56234;DHT22;42141;53.240;6.580;2023-07-13T07:31:22;20.20;99.90
56234;DHT22;42141;53.240;6.580;2023-07-13T07:33:47;20.00;99.90
56234;DHT22;42141;53.240;6.580;2023-07-13T07:36:15;19.90;99.90
56234;DHT22;42141;53.240;6.580;2023-07-13T07:38:42;19.90;99.90
56234;DHT22;42141;53.240;6.580;2023-07-13T07:41:08;20.10;99.90
56234;DHT22;42141;53.240;6.580;2023-07-13T07:43:33;20.30;99.90
56234;DHT22;42141;53.240;6.580;2023-07-13T07:45:59;20.40;99.90
56234;DHT22;42141;53.240;6.580;2023-07-13T07:48:28;20.40;99.90
56234;DHT22;42141;53.240;6.580;2023-07-13T07:50:54;20.50;99.90
56234;DHT22;42141;53.240;6.580;2023-07-13T07:53:19;20.60;99.90
56234;DHT22;42141;53.240;6.580;2023-07-13T07:55:48;20.70;99.90
56234;DHT22;42141;53.240;6.580;2023-07-13T07:58:13;20.80;99.90
56234;DHT22;42141;53.240;6.580;2023-07-13T08:00:39;20.70;99.90
56234;DHT22;42141;53.240;6.580;2023-07-13T08:03:06;20.60;99.90
56234;DHT22;42141;53.240;6.580;2023-07-13T08:05:31;20.30;99.90
56234;DHT22;42141;53.240;6.580;2023-07-13T08:08:00;20.40;99.90
56234;DHT22;42141;53.240;6.580;2023-07-13T08:10:26;18.10;99.90
56234;DHT22;42141;53.240;6.580;2023-07-13T08:12:52;20.00;99.90
56234;DHT22;42141;53.240;6.580;2023-07-13T08:15:17;17.80;99.90
56234;DHT22;42141;53.240;6.580;2023-07-13T08:17:49;19.60;99.90
56234;DHT22;42141;53.240;6.580;2023-07-13T08:20:15;19.50;99.90
56234;DHT22;42141;53.240;6.580;2023-07-13T08:22:41;19.50;99.90
56234;DHT22;42141;53.240;6.580;2023-07-13T08:25:07;18.50;99.90
56234;DHT22;42141;53.240;6.580;2023-07-13T08:27:33;19.80;99.90
56234;DHT22;42141;53.240;6.580;2023-07-13T08:29:59;19.80;99.90
56234;DHT22;42141;53.240;6.580;2023-07-13T08:32:24;19.90;99.90
56234;DHT22;42141;53.240;6.580;2023-07-13T08:34:50;19.90;99.90
56234;DHT22;42141;53.240;6.580;2023-07-13T08:37:17;19.90;99.90
56234;DHT22;42141;53.240;6.580;2023-07-13T08:39:43;19.80;99.90
56234;DHT22;42141;53.240;6.580;2023-07-13T08:47:48;19.70;99.90
56234;DHT22;42141;53.240;6.580;2023-07-13T08:50:19;19.70;99.90
56234;DHT22;42141;53.240;6.580;2023-07-13T08:52:47;19.60;99.90
56234;DHT22;42141;53.240;6.580;2023-07-13T08:57:41;18.30;99.90
56234;DHT22;42141;53.240;6.580;2023-07-13T09:00:11;19.80;99.90
56234;DHT22;42141;53.240;6.580;2023-07-13T09:02:42;20.20;99.90
56234;DHT22;42141;53.240;6.580;2023-07-13T09:10:53;20.60;99.90
56234;DHT22;42141;53.240;6.580;2023-07-13T09:15:49;20.60;99.90
56234;DHT22;42141;53.240;6.580;2023-07-13T09:18:32;20.60;99.90
56234;DHT22;42141;53.240;6.580;2023-07-13T09:21:00;20.50;99.90
56234;DHT22;42141;53.240;6.580;2023-07-13T09:23:29;20.30;99.90
56234;DHT22;42141;53.240;6.580;2023-07-13T09:26:06;20.30;99.90
56234;DHT22;42141;53.240;6.580;2023-07-13T09:28:38;20.30;99.90
56234;DHT22;42141;53.240;6.580;2023-07-13T09:31:11;20.60;99.90
56234;DHT22;42141;53.240;6.580;2023-07-13T09:33:45;20.90;99.90
56234;DHT22;42141;53.240;6.580;2023-07-13T09:36:30;20.00;99.90
56234;DHT22;42141;53.240;6.580;2023-07-13T09:39:10;23.40;99.90
56234;DHT22;42141;53.240;6.580;2023-07-13T09:44:37;21.80;99.90
56234;DHT22;42141;53.240;6.580;2023-07-13T09:47:16;21.60;99.90
56234;DHT22;42141;53.240;6.580;2023-07-13T09:49:42;21.60;99.90
56234;DHT22;42141;53.240;6.580;2023-07-13T09:52:15;21.50;99.90
56234;DHT22;42141;53.240;6.580;2023-07-13T09:54:45;21.50;99.90
56234;DHT22;42141;53.240;6.580;2023-07-13T09:57:15;21.50;99.90
56234;DHT22;42141;53.240;6.580;2023-07-13T09:59:44;21.40;99.90
56234;DHT22;42141;53.240;6.580;2023-07-13T10:02:34;21.40;99.90
56234;DHT22;42141;53.240;6.580;2023-07-13T10:05:14;21.30;99.90
56234;DHT22;42141;53.240;6.580;2023-07-13T10:07:44;21.20;99.90
56234;DHT22;42141;53.240;6.580;2023-07-13T10:10:22;21.00;99.90
56234;DHT22;42141;53.240;6.580;2023-07-13T10:12:49;21.00;99.90
56234;DHT22;42141;53.240;6.580;2023-07-13T10:15:22;20.90;99.90
56234;DHT22;42141;53.240;6.580;2023-07-13T10:17:54;20.90;99.90
56234;DHT22;42141;53.240;6.580;2023-07-13T10:20:21;21.10;99.90
56234;DHT22;42141;53.240;6.580;2023-07-13T10:22:54;21.40;99.90
56234;DHT22;42141;53.240;6.580;2023-07-13T10:25:31;21.60;99.90
56234;DHT22;42141;53.240;6.580;2023-07-13T10:28:06;21.70;99.90
56234;DHT22;42141;53.240;6.580;2023-07-13T10:30:41;21.80;99.90
56234;DHT22;42141;53.240;6.580;2023-07-13T10:33:12;22.10;99.40
56234;DHT22;42141;53.240;6.580;2023-07-13T10:35:42;22.50;99.40
56234;DHT22;42141;53.240;6.580;2023-07-13T10:38:14;22.80;98.90
56234;DHT22;42141;53.240;6.580;2023-07-13T10:43:28;23.20;97.30
56234;DHT22;42141;53.240;6.580;2023-07-13T10:45:56;23.10;97.40
56234;DHT22;42141;53.240;6.580;2023-07-13T10:48:23;23.00;97.00
56234;DHT22;42141;53.240;6.580;2023-07-13T10:50:51;22.90;97.00
56234;DHT22;42141;53.240;6.580;2023-07-13T10:53:38;23.00;96.60
56234;DHT22;42141;53.240;6.580;2023-07-13T10:58:41;23.50;96.30
56234;DHT22;42141;53.240;6.580;2023-07-13T11:01:13;23.70;95.80
56234;DHT22;42141;53.240;6.580;2023-07-13T11:06:11;24.00;94.90
56234;DHT22;42141;53.240;6.580;2023-07-13T11:19:37;23.50;92.90
56234;DHT22;42141;53.240;6.580;2023-07-13T11:22:09;24.80;93.20
56234;DHT22;42141;53.240;6.580;2023-07-13T11:24:56;24.60;91.60
56234;DHT22;42141;53.240;6.580;2023-07-13T11:27:42;24.50;91.80
56234;DHT22;42141;53.240;6.580;2023-07-13T11:33:17;24.30;91.50
56234;DHT22;42141;53.240;6.580;2023-07-13T11:35:59;24.30;91.50
56234;DHT22;42141;53.240;6.580;2023-07-13T11:38:39;23.10;91.30
56234;DHT22;42141;53.240;6.580;2023-07-13T11:41:15;24.30;91.00
56234;DHT22;42141;53.240;6.580;2023-07-13T11:43:41;24.10;91.10
56234;DHT22;42141;53.240;6.580;2023-07-13T11:46:22;23.90;91.00
56234;DHT22;42141;53.240;6.580;2023-07-13T11:48:49;23.70;90.40
56234;DHT22;42141;53.240;6.580;2023-07-13T11:51:26;23.60;91.10
56234;DHT22;42141;53.240;6.580;2023-07-13T11:53:54;23.70;91.30
56234;DHT22;42141;53.240;6.580;2023-07-13T11:56:22;23.70;91.30
56234;DHT22;42141;53.240;6.580;2023-07-13T11:58:54;23.50;91.20
56234;DHT22;42141;53.240;6.580;2023-07-13T12:01:26;23.50;91.00
56234;DHT22;42141;53.240;6.580;2023-07-13T12:04:00;23.50;91.10
56234;DHT22;42141;53.240;6.580;2023-07-13T12:06:35;23.50;91.20
56234;DHT22;42141;53.240;6.580;2023-07-13T12:09:13;23.00;91.50
56234;DHT22;42141;53.240;6.580;2023-07-13T12:11:42;24.00;91.70
56234;DHT22;42141;53.240;6.580;2023-07-13T12:14:18;24.20;91.00
56234;DHT22;42141;53.240;6.580;2023-07-13T12:16:48;24.10;90.40
56234;DHT22;42141;53.240;6.580;2023-07-13T12:19:22;24.00;90.30
56234;DHT22;42141;53.240;6.580;2023-07-13T12:21:50;22.90;90.00
56234;DHT22;42141;53.240;6.580;2023-07-13T12:24:20;23.70;90.10
56234;DHT22;42141;53.240;6.580;2023-07-13T12:26:59;23.60;90.20
56234;DHT22;42141;53.240;6.580;2023-07-13T12:29:26;23.50;90.20
56234;DHT22;42141;53.240;6.580;2023-07-13T12:31:52;23.50;90.40
56234;DHT22;42141;53.240;6.580;2023-07-13T12:34:21;23.40;90.50
56234;DHT22;42141;53.240;6.580;2023-07-13T12:37:01;23.20;90.30
56234;DHT22;42141;53.240;6.580;2023-07-13T12:39:43;23.10;89.80
56234;DHT22;42141;53.240;6.580;2023-07-13T12:42:27;21.60;90.00
56234;DHT22;42141;53.240;6.580;2023-07-13T12:45:01;22.50;90.50
56234;DHT22;42141;53.240;6.580;2023-07-13T12:47:28;22.80;91.30
56234;DHT22;42141;53.240;6.580;2023-07-13T12:49:59;22.90;91.20
56234;DHT22;42141;53.240;6.580;2023-07-13T12:52:32;22.80;90.90
56234;DHT22;42141;53.240;6.580;2023-07-13T12:55:07;22.70;90.50
56234;DHT22;42141;53.240;6.580;2023-07-13T12:58:02;22.70;91.10
56234;DHT22;42141;53.240;6.580;2023-07-13T13:00:35;22.90;91.30
56234;DHT22;42141;53.240;6.580;2023-07-13T13:03:16;23.10;91.60
56234;DHT22;42141;53.240;6.580;2023-07-13T13:05:44;23.40;91.70
56234;DHT22;42141;53.240;6.580;2023-07-13T13:08:16;23.80;91.70
56234;DHT22;42141;53.240;6.580;2023-07-13T13:10:43;24.10;91.70
56234;DHT22;42141;53.240;6.580;2023-07-13T13:13:11;24.20;91.60
56234;DHT22;42141;53.240;6.580;2023-07-13T13:15:37;24.50;91.10
56234;DHT22;42141;53.240;6.580;2023-07-13T13:18:08;24.60;90.80
56234;DHT22;42141;53.240;6.580;2023-07-13T13:20:34;24.80;90.40
56234;DHT22;42141;53.240;6.580;2023-07-13T13:23:04;25.00;90.80
56234;DHT22;42141;53.240;6.580;2023-07-13T13:25:29;25.00;90.30
56234;DHT22;42141;53.240;6.580;2023-07-13T13:27:55;24.80;90.10
56234;DHT22;42141;53.240;6.580;2023-07-13T13:30:21;24.40;90.40
56234;DHT22;42141;53.240;6.580;2023-07-13T13:32:48;24.00;91.20
56234;DHT22;42141;53.240;6.580;2023-07-13T13:35:15;23.80;91.80
56234;DHT22;42141;53.240;6.580;2023-07-13T13:37:42;23.10;92.20
56234;DHT22;42141;53.240;6.580;2023-07-13T13:40:20;22.80;94.00
56234;DHT22;42141;53.240;6.580;2023-07-13T13:42:46;22.50;95.60
56234;DHT22;42141;53.240;6.580;2023-07-13T13:45:12;22.30;97.00
56234;DHT22;42141;53.240;6.580;2023-07-13T13:47:39;22.40;98.50
56234;DHT22;42141;53.240;6.580;2023-07-13T13:50:20;22.60;99.40
56234;DHT22;42141;53.240;6.580;2023-07-13T13:52:48;22.70;99.70
56234;DHT22;42141;53.240;6.580;2023-07-13T13:55:34;22.80;99.30
56234;DHT22;42141;53.240;6.580;2023-07-13T13:58:16;21.30;98.70
56234;DHT22;42141;53.240;6.580;2023-07-13T14:00:42;23.30;98.60
56234;DHT22;42141;53.240;6.580;2023-07-13T14:03:20;23.40;97.70
56234;DHT22;42141;53.240;6.580;2023-07-13T14:05:47;23.60;97.30
56234;DHT22;42141;53.240;6.580;2023-07-13T14:08:19;23.60;96.80
56234;DHT22;42141;53.240;6.580;2023-07-13T14:10:48;23.70;96.10
56234;DHT22;42141;53.240;6.580;2023-07-13T14:13:19;23.70;95.80
56234;DHT22;42141;53.240;6.580;2023-07-13T14:15:46;23.50;95.30
56234;DHT22;42141;53.240;6.580;2023-07-13T14:18:13;23.40;95.10
56234;DHT22;42141;53.240;6.580;2023-07-13T14:20:43;23.40;95.20
56234;DHT22;42141;53.240;6.580;2023-07-13T14:23:12;23.40;95.10
56234;DHT22;42141;53.240;6.580;2023-07-13T14:25:38;23.40;94.70
56234;DHT22;42141;53.240;6.580;2023-07-13T14:30:43;23.20;93.90
56234;DHT22;42141;53.240;6.580;2023-07-13T14:33:11;23.10;94.10
56234;DHT22;42141;53.240;6.580;2023-07-13T14:35:37;23.20;93.90
56234;DHT22;42141;53.240;6.580;2023-07-13T14:38:03;23.40;93.90
56234;DHT22;42141;53.240;6.580;2023-07-13T14:40:31;23.50;93.60
56234;DHT22;42141;53.240;6.580;2023-07-13T14:42:58;23.80;93.10
56234;DHT22;42141;53.240;6.580;2023-07-13T14:45:24;24.00;92.80
56234;DHT22;42141;53.240;6.580;2023-07-13T14:47:51;23.40;92.20
56234;DHT22;42141;53.240;6.580;2023-07-13T14:50:24;22.90;92.20
56234;DHT22;42141;53.240;6.580;2023-07-13T14:52:52;24.00;92.40
56234;DHT22;42141;53.240;6.580;2023-07-13T14:55:18;23.40;92.40
56234;DHT22;42141;53.240;6.580;2023-07-13T14:57:44;23.90;92.50
56234;DHT22;42141;53.240;6.580;2023-07-13T15:00:15;23.80;92.40
56234;DHT22;42141;53.240;6.580;2023-07-13T15:02:44;23.80;92.60
56234;DHT22;42141;53.240;6.580;2023-07-13T15:08:04;24.10;92.60
56234;DHT22;42141;53.240;6.580;2023-07-13T15:10:32;24.40;92.50
56234;DHT22;42141;53.240;6.580;2023-07-13T15:15:49;24.60;92.20
56234;DHT22;42141;53.240;6.580;2023-07-13T15:18:19;24.80;92.20
56234;DHT22;42141;53.240;6.580;2023-07-13T15:20:47;24.80;91.80
56234;DHT22;42141;53.240;6.580;2023-07-13T15:23:15;24.70;91.70
56234;DHT22;42141;53.240;6.580;2023-07-13T15:25:42;24.70;91.70
56234;DHT22;42141;53.240;6.580;2023-07-13T15:28:09;24.70;91.60
56234;DHT22;42141;53.240;6.580;2023-07-13T15:30:44;24.60;91.40
56234;DHT22;42141;53.240;6.580;2023-07-13T15:33:28;24.40;91.10
56234;DHT22;42141;53.240;6.580;2023-07-13T15:36:00;24.10;90.70
56234;DHT22;42141;53.240;6.580;2023-07-13T15:38:29;23.80;91.40
56234;DHT22;42141;53.240;6.580;2023-07-13T15:40:55;23.50;91.50
56234;DHT22;42141;53.240;6.580;2023-07-13T15:43:22;23.40;91.80
56234;DHT22;42141;53.240;6.580;2023-07-13T15:45:48;23.30;91.90
56234;DHT22;42141;53.240;6.580;2023-07-13T15:48:18;23.40;91.90
56234;DHT22;42141;53.240;6.580;2023-07-13T15:50:52;23.60;91.90
56234;DHT22;42141;53.240;6.580;2023-07-13T15:53:28;23.80;91.50
56234;DHT22;42141;53.240;6.580;2023-07-13T15:55:54;23.80;90.50
56234;DHT22;42141;53.240;6.580;2023-07-13T15:58:21;23.80;90.90
56234;DHT22;42141;53.240;6.580;2023-07-13T16:00:47;23.60;90.90
56234;DHT22;42141;53.240;6.580;2023-07-13T16:03:15;23.50;91.10
56234;DHT22;42141;53.240;6.580;2023-07-13T16:05:41;23.40;91.40
56234;DHT22;42141;53.240;6.580;2023-07-13T16:10:45;23.10;91.30
56234;DHT22;42141;53.240;6.580;2023-07-13T16:13:15;22.90;91.60
56234;DHT22;42141;53.240;6.580;2023-07-13T16:15:41;22.80;91.80
56234;DHT22;42141;53.240;6.580;2023-07-13T16:18:14;22.80;92.00
56234;DHT22;42141;53.240;6.580;2023-07-13T16:20:45;22.90;92.10
56234;DHT22;42141;53.240;6.580;2023-07-13T16:23:13;22.80;92.10
56234;DHT22;42141;53.240;6.580;2023-07-13T16:25:40;22.80;92.10
56234;DHT22;42141;53.240;6.580;2023-07-13T16:28:06;22.70;92.20
56234;DHT22;42141;53.240;6.580;2023-07-13T16:30:34;22.70;92.20
56234;DHT22;42141;53.240;6.580;2023-07-13T16:33:01;22.50;92.30